createdAt,value
2019-03-10T00:00:59.294Z,59.60
2019-03-10T00:05:56.513Z,59.80
2019-03-10T00:08:25.552Z,61.10
2019-03-10T00:10:54.280Z,61.80
2019-03-10T00:13:22.966Z,62.20
2019-03-10T00:15:51.742Z,62.20
2019-03-10T00:18:20.388Z,61.90
2019-03-10T00:20:49.210Z,61.20
2019-03-10T00:25:47.162Z,62.10
2019-03-10T00:28:17.240Z,63.00
2019-03-10T00:30:46.080Z,63.80
2019-03-10T00:33:14.986Z,63.20
2019-03-10T00:35:43.799Z,63.50
2019-03-10T00:38:12.627Z,63.20
2019-03-10T00:41:11.817Z,62.80
2019-03-10T00:44:16.676Z,61.70
2019-03-10T00:47:25.070Z,62.50
2019-03-10T00:50:16.105Z,63.20
2019-03-10T00:52:57.420Z,63.20
2019-03-10T00:55:26.375Z,62.00
2019-03-10T00:57:55.098Z,61.80
2019-03-10T01:00:23.777Z,61.80
2019-03-10T01:07:49.584Z,60.30
2019-03-10T01:10:18.340Z,61.30
2019-03-10T01:12:47.010Z,61.40
2019-03-10T01:15:33.734Z,61.10
2019-03-10T01:18:03.737Z,59.90
2019-03-10T01:20:33.464Z,60.60
2019-03-10T01:23:02.113Z,60.80
2019-03-10T01:25:30.785Z,59.90
2019-03-10T01:30:28.485Z,60.00
2019-03-10T01:33:37.129Z,61.10
2019-03-10T01:36:14.724Z,62.20
2019-03-10T01:38:43.736Z,61.10
2019-03-10T01:41:12.520Z,60.80
2019-03-10T01:43:41.155Z,60.60
2019-03-10T01:46:09.881Z,59.90
2019-03-10T01:51:07.224Z,59.80
2019-03-10T01:53:35.913Z,60.70
2019-03-10T01:56:04.591Z,60.10
2019-03-10T01:58:33.560Z,60.30
2019-03-10T02:01:02.553Z,60.10
2019-03-10T02:03:31.261Z,60.00
2019-03-10T02:06:00.023Z,59.30
2019-03-10T02:13:25.500Z,59.10
2019-03-10T02:15:54.347Z,59.50
2019-03-10T02:18:23.069Z,59.40
2019-03-10T02:20:51.825Z,59.20
2019-03-10T02:23:20.534Z,59.10
2019-03-10T02:25:49.182Z,58.80
2019-03-10T02:28:17.918Z,58.50
2019-03-10T02:33:16.429Z,58.30
2019-03-10T02:35:45.108Z,58.50
2019-03-10T02:38:13.879Z,58.10
2019-03-10T02:40:43.556Z,57.20
2019-03-10T02:43:12.325Z,56.40
2019-03-10T02:45:40.979Z,55.80
2019-03-10T02:48:09.641Z,53.90
2019-03-10T02:50:38.301Z,52.80
2019-03-10T02:55:35.233Z,52.60
2019-03-10T02:58:03.882Z,52.90
2019-03-10T03:00:32.581Z,52.90
2019-03-10T03:03:01.221Z,52.80
2019-03-10T03:05:30.293Z,53.20
2019-03-10T03:07:58.930Z,52.50
2019-03-10T03:10:27.585Z,57.90
2019-03-10T03:12:56.241Z,68.40
2019-03-10T03:17:53.187Z,68.50
2019-03-10T03:20:22.147Z,69.80
2019-03-10T03:22:51.108Z,71.80
2019-03-10T03:25:19.872Z,71.70
2019-03-10T03:27:48.622Z,72.00
2019-03-10T03:30:17.319Z,72.30
2019-03-10T03:32:46.278Z,73.80
2019-03-10T03:35:55.265Z,70.70
2019-03-10T03:41:08.998Z,67.20
2019-03-10T03:43:37.656Z,68.80
2019-03-10T03:46:06.377Z,69.80
2019-03-10T03:48:35.055Z,69.20
2019-03-10T03:51:03.745Z,70.80
2019-03-10T03:53:32.684Z,71.90
2019-03-10T03:56:01.336Z,72.20
2019-03-10T03:58:29.993Z,70.80
2019-03-10T04:03:40.980Z,70.70
2019-03-10T04:06:09.943Z,72.60
2019-03-10T04:08:38.656Z,72.40
2019-03-10T04:11:07.631Z,72.10
2019-03-10T04:13:36.337Z,71.70
2019-03-10T04:16:05.033Z,71.90
2019-03-10T04:18:33.682Z,72.00
2019-03-10T04:21:02.474Z,71.00
2019-03-10T04:25:59.516Z,71.20
2019-03-10T04:28:28.639Z,72.80
2019-03-10T04:30:57.339Z,73.30
2019-03-10T04:33:26.025Z,73.30
2019-03-10T04:35:54.671Z,73.60
2019-03-10T04:38:23.675Z,73.60
2019-03-10T04:40:52.653Z,73.00
2019-03-10T04:43:21.380Z,72.00
2019-03-10T04:48:18.517Z,71.20
2019-03-10T04:50:47.237Z,71.70
2019-03-10T04:53:15.916Z,71.10
2019-03-10T04:55:49.598Z,70.00
2019-03-10T04:58:18.341Z,69.80
2019-03-10T05:00:50.243Z,69.70
2019-03-10T05:03:18.955Z,69.90
2019-03-10T05:08:16.052Z,70.10
2019-03-10T05:10:44.811Z,71.40
2019-03-10T05:13:13.488Z,71.90
2019-03-10T05:15:42.186Z,71.50
2019-03-10T05:18:10.847Z,71.60
2019-03-10T05:20:39.506Z,71.50
2019-03-10T05:23:30.189Z,72.20
2019-03-10T05:25:59.201Z,71.70
2019-03-10T05:28:28.716Z,73.10
2019-03-10T05:33:25.737Z,72.80
2019-03-10T05:35:54.389Z,74.40
2019-03-10T05:38:23.095Z,75.00
2019-03-10T05:40:51.741Z,76.00
2019-03-10T05:43:20.411Z,77.90
2019-03-10T05:45:49.142Z,78.60
2019-03-10T05:48:17.833Z,80.70
2019-03-10T05:50:46.514Z,82.40
2019-03-10T05:55:43.587Z,84.90
2019-03-10T05:58:12.228Z,86.90
2019-03-10T06:00:42.869Z,86.90
2019-03-10T06:03:11.583Z,87.40
2019-03-10T06:05:40.211Z,89.10
2019-03-10T06:08:08.941Z,88.70
2019-03-10T06:10:37.600Z,90.00
2019-03-10T06:13:06.249Z,90.60
2019-03-10T06:18:13.206Z,91.20
2019-03-10T06:20:33.622Z,91.70
2019-03-10T06:23:02.275Z,92.20
2019-03-10T06:25:30.991Z,91.30
2019-03-10T06:27:59.723Z,91.50
2019-03-10T06:30:28.379Z,92.10
2019-03-10T06:32:57.310Z,92.20
2019-03-10T06:40:31.681Z,91.60
2019-03-10T06:42:53.332Z,92.50
2019-03-10T06:45:22.015Z,92.70
2019-03-10T06:47:50.695Z,92.90
2019-03-10T06:50:19.652Z,93.20
2019-03-10T06:52:48.424Z,93.10
2019-03-10T06:55:17.227Z,93.40
2019-03-10T07:00:14.265Z,93.10
2019-03-10T07:02:42.922Z,93.70
2019-03-10T07:05:11.839Z,94.20
2019-03-10T07:07:40.587Z,93.40
2019-03-10T07:10:11.439Z,93.10
2019-03-10T07:12:40.113Z,92.40
2019-03-10T07:15:09.623Z,91.40
2019-03-10T07:17:39.390Z,91.70
2019-03-10T07:22:37.917Z,91.80
2019-03-10T07:25:07.127Z,92.20
2019-03-10T07:27:48.357Z,91.90
2019-03-10T07:30:39.794Z,91.60
2019-03-10T07:33:26.507Z,91.30
2019-03-10T07:36:14.242Z,91.20
2019-03-10T07:39:08.040Z,92.10
2019-03-10T07:41:48.301Z,91.80
2019-03-10T07:44:23.176Z,91.60
2019-03-10T07:47:17.013Z,91.80
2019-03-10T07:50:10.015Z,92.10
2019-03-10T07:53:00.718Z,92.40
2019-03-10T07:55:45.149Z,92.00
2019-03-10T07:58:24.393Z,92.10
2019-03-10T08:01:10.941Z,92.30
2019-03-10T08:03:58.725Z,92.30
2019-03-10T08:06:36.691Z,92.10
2019-03-10T08:09:30.493Z,91.10
2019-03-10T08:12:07.242Z,90.70
2019-03-10T08:17:53.924Z,90.80
2019-03-10T08:20:37.026Z,90.50
2019-03-10T08:23:12.667Z,90.60
2019-03-10T08:25:52.371Z,90.00
2019-03-10T08:28:40.129Z,88.60
2019-03-10T08:31:26.805Z,89.20
2019-03-10T08:34:17.612Z,88.40
2019-03-10T08:37:06.225Z,85.60
2019-03-10T08:40:03.010Z,84.90
2019-03-10T08:51:10.075Z,81.90
2019-03-10T08:53:50.429Z,82.30
2019-03-10T08:56:27.220Z,83.20
2019-03-10T08:59:15.063Z,82.00
2019-03-10T09:01:57.038Z,81.80
2019-03-10T09:04:43.525Z,80.50
2019-03-10T09:07:27.510Z,80.20
2019-03-10T09:10:14.309Z,76.20
2019-03-10T09:15:42.496Z,74.60
2019-03-10T09:18:45.306Z,75.60
2019-03-10T09:21:36.259Z,75.60
2019-03-10T09:24:28.012Z,74.90
2019-03-10T09:27:14.465Z,73.50
2019-03-10T09:30:02.329Z,74.00
2019-03-10T09:32:44.383Z,74.80
2019-03-10T09:35:23.899Z,75.00
2019-03-10T09:40:35.961Z,76.30
2019-03-10T09:43:39.089Z,78.90
2019-03-10T09:46:15.053Z,81.80
2019-03-10T09:49:02.768Z,83.30
2019-03-10T09:52:09.749Z,84.70
2019-03-10T09:54:56.168Z,85.30
2019-03-10T09:57:42.790Z,86.40
2019-03-10T10:00:29.243Z,87.50
2019-03-10T10:03:15.896Z,89.80
2019-03-10T10:11:34.583Z,91.30
2019-03-10T10:14:14.621Z,91.90
2019-03-10T10:17:01.209Z,91.90
2019-03-10T10:19:36.980Z,92.30
2019-03-10T10:22:25.954Z,93.00
2019-03-10T10:25:23.112Z,93.30
2019-03-10T10:28:09.498Z,93.90
2019-03-10T10:30:47.408Z,94.00
2019-03-10T10:33:33.507Z,93.90
2019-03-10T10:39:19.176Z,94.50
2019-03-10T10:42:22.154Z,94.90
2019-03-10T10:45:18.782Z,94.70
2019-03-10T10:48:06.571Z,95.60
2019-03-10T10:50:48.556Z,96.30
2019-03-10T10:53:31.403Z,96.20
2019-03-10T10:56:16.297Z,96.60
2019-03-10T10:59:00.401Z,97.60
2019-03-10T11:02:03.652Z,97.40
2019-03-10T11:05:06.515Z,97.00
2019-03-10T11:07:57.069Z,97.40
2019-03-10T11:10:43.503Z,96.50
2019-03-10T11:13:25.490Z,96.40
2019-03-10T11:16:06.432Z,96.70
2019-03-10T11:18:54.194Z,96.90
2019-03-10T11:21:39.244Z,96.60
2019-03-10T11:24:25.338Z,96.50
2019-03-10T11:27:07.233Z,96.40
2019-03-10T11:29:47.377Z,96.10
2019-03-10T11:32:24.364Z,95.10
2019-03-10T11:35:08.317Z,95.40
2019-03-10T11:38:11.234Z,95.10
2019-03-10T11:41:14.770Z,95.00
2019-03-10T11:43:51.682Z,94.90
2019-03-10T11:46:31.622Z,95.40
2019-03-10T11:49:17.918Z,94.90
2019-03-10T11:51:59.844Z,95.40
2019-03-10T11:54:41.722Z,94.40
2019-03-10T11:57:30.925Z,93.00
2019-03-10T12:00:04.544Z,91.60
2019-03-10T12:05:24.810Z,90.70
2019-03-10T12:07:59.306Z,91.40
2019-03-10T12:10:28.059Z,91.30
2019-03-10T12:12:56.778Z,90.80
2019-03-10T12:15:25.462Z,90.10
2019-03-10T12:17:54.149Z,84.80
2019-03-10T12:20:22.817Z,79.90
2019-03-10T12:25:21.756Z,78.30
2019-03-10T12:27:50.519Z,80.30
2019-03-10T12:30:19.209Z,80.10
2019-03-10T12:32:48.222Z,78.80
2019-03-10T12:35:16.872Z,76.30
2019-03-10T12:37:45.514Z,76.70
2019-03-10T12:40:14.290Z,76.90
2019-03-10T12:42:42.991Z,74.80
2019-03-10T12:45:11.738Z,74.80
2019-03-10T12:47:40.400Z,75.10
2019-03-10T12:50:09.145Z,75.20
2019-03-10T12:52:37.829Z,75.70
2019-03-10T12:55:06.672Z,77.40
2019-03-10T12:57:35.352Z,76.60
2019-03-10T13:00:04.634Z,77.80
2019-03-10T13:02:33.291Z,78.80
2019-03-10T13:07:30.302Z,77.80
2019-03-10T13:09:58.973Z,77.60
2019-03-10T13:12:27.669Z,78.50
2019-03-10T13:14:59.805Z,80.30
2019-03-10T13:17:26.814Z,78.60
2019-03-10T13:19:55.487Z,78.80
2019-03-10T13:22:24.176Z,79.60
2019-03-10T13:24:53.249Z,79.10
2019-03-10T13:29:50.719Z,77.10
2019-03-10T13:32:19.434Z,77.60
2019-03-10T13:34:48.473Z,79.50
2019-03-10T13:37:17.198Z,78.80
2019-03-10T13:39:46.157Z,77.30
2019-03-10T13:42:14.898Z,79.20
2019-03-10T13:44:43.556Z,79.40
2019-03-10T13:47:12.245Z,78.60
2019-03-10T13:52:09.313Z,76.60
2019-03-10T13:54:37.995Z,76.40
2019-03-10T13:57:06.696Z,76.90
2019-03-10T13:59:35.393Z,75.40
2019-03-10T14:02:04.160Z,75.00
2019-03-10T14:04:33.160Z,74.30
2019-03-10T14:07:01.821Z,71.30
2019-03-10T14:09:30.510Z,70.80
2019-03-10T14:14:27.639Z,69.10
2019-03-10T14:16:56.387Z,68.00
2019-03-10T14:19:25.035Z,67.70
2019-03-10T14:21:53.699Z,66.30
2019-03-10T14:24:22.344Z,67.00
2019-03-10T14:26:51.026Z,65.10
2019-03-10T14:29:19.702Z,63.80
2019-03-10T14:31:48.362Z,60.80
2019-03-10T14:36:46.361Z,59.20
2019-03-10T14:39:15.315Z,58.60
2019-03-10T14:41:43.979Z,57.70
2019-03-10T14:44:12.722Z,57.40
2019-03-10T14:46:44.464Z,57.00
2019-03-10T14:49:22.592Z,56.40
2019-03-10T14:51:43.614Z,55.80
2019-03-10T14:54:12.257Z,55.00
2019-03-10T14:59:09.316Z,54.80
2019-03-10T15:01:38.028Z,50.20
2019-03-10T15:04:06.984Z,50.70
2019-03-10T15:06:35.714Z,50.00
2019-03-10T15:09:05.170Z,50.60
2019-03-10T15:11:33.837Z,50.30
2019-03-10T15:14:02.493Z,51.00
2019-03-10T15:16:31.170Z,50.90
2019-03-10T15:21:28.225Z,50.90
2019-03-10T15:23:56.987Z,51.80
2019-03-10T15:26:26.992Z,53.10
2019-03-10T15:28:55.791Z,52.90
2019-03-10T15:31:24.519Z,60.90
2019-03-10T15:33:53.280Z,62.50
2019-03-10T15:36:22.073Z,74.00
2019-03-10T15:41:19.145Z,79.40
2019-03-10T15:43:47.813Z,82.50
2019-03-10T15:46:16.514Z,82.70
2019-03-10T15:48:45.503Z,82.50
2019-03-10T15:51:14.284Z,83.30
2019-03-10T15:53:43.148Z,83.30
2019-03-10T15:56:11.800Z,81.90
2019-03-10T15:58:40.442Z,82.50
2019-03-10T16:03:37.438Z,83.30
2019-03-10T16:06:06.230Z,86.40
2019-03-10T16:08:34.890Z,87.90
2019-03-10T16:11:03.563Z,89.80
2019-03-10T16:13:32.823Z,90.50
2019-03-10T16:16:02.485Z,92.30
2019-03-10T16:18:31.143Z,92.90
2019-03-10T16:23:28.260Z,93.30
2019-03-10T16:25:57.221Z,93.70
2019-03-10T16:28:26.151Z,93.00
2019-03-10T16:30:54.889Z,93.00
2019-03-10T16:33:25.466Z,93.70
2019-03-10T16:35:54.076Z,94.20
2019-03-10T16:38:23.081Z,92.30
2019-03-10T16:40:51.720Z,92.00
2019-03-10T16:45:48.933Z,91.60
2019-03-10T16:48:17.687Z,91.70
2019-03-10T16:50:46.358Z,91.60
2019-03-10T16:53:15.134Z,91.80
2019-03-10T16:55:45.514Z,92.10
2019-03-10T16:58:15.663Z,92.20
2019-03-10T17:00:44.448Z,92.90
2019-03-10T17:03:15.254Z,95.80
2019-03-10T17:08:13.644Z,92.00
2019-03-10T17:10:42.464Z,91.90
2019-03-10T17:13:11.552Z,92.30
2019-03-10T17:15:40.304Z,91.90
2019-03-10T17:18:11.658Z,92.30
2019-03-10T17:20:40.341Z,92.10
2019-03-10T17:23:09.103Z,91.20
2019-03-10T17:25:37.752Z,93.40
2019-03-10T17:30:34.765Z,88.90
2019-03-10T17:33:03.453Z,89.50
2019-03-10T17:35:32.106Z,90.10
2019-03-10T17:38:00.774Z,90.50
2019-03-10T17:40:29.478Z,90.00
2019-03-10T17:42:58.184Z,90.30
2019-03-10T17:45:26.857Z,89.60
2019-03-10T17:47:55.521Z,88.80
2019-03-10T17:52:52.810Z,90.10
2019-03-10T17:55:21.733Z,90.40
2019-03-10T17:57:50.431Z,91.40
2019-03-10T18:00:21.070Z,91.20
2019-03-10T18:02:49.785Z,91.30
2019-03-10T18:05:18.438Z,91.20
2019-03-10T18:07:47.365Z,89.90
2019-03-10T18:15:13.393Z,89.60
2019-03-10T18:17:42.061Z,90.50
2019-03-10T18:20:12.369Z,90.60
2019-03-10T18:22:41.672Z,90.40
2019-03-10T18:25:10.919Z,90.80
2019-03-10T18:27:39.613Z,91.50
2019-03-10T18:30:10.670Z,92.80
2019-03-10T18:32:39.395Z,92.80
2019-03-10T18:37:37.455Z,93.50
2019-03-10T18:40:08.520Z,93.80
2019-03-10T18:45:05.804Z,92.30
2019-03-10T18:47:34.486Z,92.50
2019-03-10T18:50:03.311Z,91.50
2019-03-10T18:52:32.221Z,90.90
2019-03-10T18:59:58.801Z,90.20
2019-03-10T19:02:27.449Z,90.20
2019-03-10T19:04:56.143Z,90.00
2019-03-10T19:07:24.827Z,89.60
2019-03-10T19:09:53.530Z,88.00
2019-03-10T19:12:22.236Z,86.90
2019-03-10T19:14:50.997Z,84.70
2019-03-10T19:19:48.284Z,84.10
2019-03-10T19:22:16.916Z,83.60
2019-03-10T19:24:45.589Z,82.40
2019-03-10T19:27:14.247Z,82.90
2019-03-10T19:29:42.891Z,83.90
2019-03-10T19:32:11.578Z,84.60
2019-03-10T19:34:40.273Z,85.50
2019-03-10T19:37:10.643Z,80.90
2019-03-10T19:44:36.157Z,85.80
2019-03-10T19:47:04.837Z,86.70
2019-03-10T19:49:33.480Z,87.80
2019-03-10T19:52:02.132Z,87.60
2019-03-10T19:54:30.868Z,88.70
2019-03-10T19:56:59.536Z,88.40
2019-03-10T19:59:28.316Z,88.30
2019-03-10T20:04:25.494Z,88.10
2019-03-10T20:06:54.185Z,87.70
2019-03-10T20:09:22.945Z,87.20
2019-03-10T20:11:51.773Z,87.70
2019-03-10T20:14:20.482Z,88.00
2019-03-10T20:16:49.149Z,88.20
2019-03-10T20:19:19.489Z,88.10
2019-03-10T20:24:17.146Z,87.40
2019-03-10T20:26:45.854Z,88.80
2019-03-10T20:29:14.846Z,90.00
2019-03-10T20:31:43.806Z,88.40
2019-03-10T20:34:12.562Z,88.10
2019-03-10T20:36:41.273Z,86.70
2019-03-10T20:39:09.993Z,85.70
2019-03-10T20:41:38.658Z,83.70
2019-03-10T20:46:35.645Z,80.90
2019-03-10T20:49:04.616Z,81.30
2019-03-10T20:51:33.274Z,79.70
2019-03-10T20:54:02.058Z,80.00
2019-03-10T20:56:30.805Z,79.60
2019-03-10T20:58:59.915Z,79.70
2019-03-10T21:01:28.820Z,79.00
2019-03-10T21:03:57.559Z,77.50
2019-03-10T21:08:54.822Z,77.30
2019-03-10T21:11:23.508Z,78.40
2019-03-10T21:13:52.469Z,77.30
2019-03-10T21:16:21.182Z,76.30
2019-03-10T21:18:49.880Z,76.10
2019-03-10T21:21:18.569Z,76.30
2019-03-10T21:23:47.240Z,75.40
2019-03-10T21:26:15.921Z,76.00
2019-03-10T21:31:12.904Z,74.90
2019-03-10T21:33:41.605Z,76.00
2019-03-10T21:36:10.270Z,75.80
2019-03-10T21:38:39.015Z,75.90
2019-03-10T21:41:14.002Z,75.40
2019-03-10T21:43:38.415Z,76.10
2019-03-10T21:46:07.722Z,76.10
2019-03-10T21:48:36.481Z,73.90
2019-03-10T21:53:34.027Z,74.20
2019-03-10T21:56:02.696Z,75.70
2019-03-10T21:58:31.370Z,75.40
2019-03-10T22:01:00.089Z,74.40
2019-03-10T22:03:29.653Z,73.80
2019-03-10T22:05:58.384Z,73.30
2019-03-10T22:10:57.852Z,73.00
2019-03-10T22:21:06.329Z,73.40
2019-03-10T22:23:37.585Z,71.80
2019-03-10T22:26:06.710Z,74.20
2019-03-10T22:28:36.564Z,76.30
2019-03-10T22:31:07.507Z,77.30
2019-03-10T22:33:36.596Z,76.20
2019-03-10T22:41:08.249Z,74.10
2019-03-10T22:43:38.840Z,69.40
2019-03-10T22:48:36.197Z,69.40
2019-03-10T22:51:05.000Z,65.80
2019-03-10T22:53:33.674Z,64.40
2019-03-10T22:56:02.455Z,63.30
2019-03-10T23:00:59.988Z,62.60
2019-03-10T23:03:28.907Z,60.50
2019-03-10T23:05:57.913Z,60.50
2019-03-10T23:08:28.407Z,60.40
2019-03-10T23:10:57.489Z,60.70
2019-03-10T23:13:37.067Z,59.50
2019-03-10T23:16:05.829Z,60.20
2019-03-10T23:18:38.821Z,59.40
2019-03-10T23:23:36.431Z,61.80
2019-03-10T23:26:05.706Z,61.00
2019-03-10T23:28:34.731Z,60.30
2019-03-10T23:31:06.627Z,59.20
2019-03-10T23:36:03.956Z,59.60
2019-03-10T23:38:32.796Z,59.70
2019-03-10T23:43:33.279Z,59.60
2019-03-10T23:48:34.577Z,59.80
2019-03-10T23:51:03.336Z,60.10
2019-03-10T23:53:32.288Z,59.20
2019-03-10T23:56:01.081Z,59.10
2019-03-10T23:58:30.133Z,58.60
